sensor_id;sensor_type;location;lat;lon;timestamp;P1;durP1;ratioP1;P2;durP2;ratioP2
33696;SDS011;20031;43.416;23.232;2023-03-13T00:01:33;5.57;;;3.90;;
33696;SDS011;20031;43.416;23.232;2023-03-13T00:03:59;5.93;;;3.78;;
33696;SDS011;20031;43.416;23.232;2023-03-13T00:06:26;6.82;;;3.90;;
33696;SDS011;20031;43.416;23.232;2023-03-13T00:08:56;8.70;;;4.10;;
33696;SDS011;20031;43.416;23.232;2023-03-13T00:11:24;7.03;;;4.25;;
33696;SDS011;20031;43.416;23.232;2023-03-13T00:13:52;6.03;;;3.88;;
33696;SDS011;20031;43.416;23.232;2023-03-13T00:16:19;7.20;;;3.88;;
33696;SDS011;20031;43.416;23.232;2023-03-13T00:18:45;6.53;;;3.88;;
33696;SDS011;20031;43.416;23.232;2023-03-13T00:21:12;6.55;;;3.88;;
33696;SDS011;20031;43.416;23.232;2023-03-13T00:23:38;7.07;;;3.95;;
33696;SDS011;20031;43.416;23.232;2023-03-13T00:26:08;6.28;;;3.90;;
33696;SDS011;20031;43.416;23.232;2023-03-13T00:28:36;6.28;;;3.67;;
33696;SDS011;20031;43.416;23.232;2023-03-13T00:31:03;6.35;;;3.55;;
33696;SDS011;20031;43.416;23.232;2023-03-13T00:33:31;7.07;;;4.13;;
33696;SDS011;20031;43.416;23.232;2023-03-13T00:36:01;9.40;;;4.20;;
33696;SDS011;20031;43.416;23.232;2023-03-13T00:38:28;12.25;;;6.47;;
33696;SDS011;20031;43.416;23.232;2023-03-13T00:41:00;6.05;;;4.00;;
33696;SDS011;20031;43.416;23.232;2023-03-13T00:43:26;6.65;;;3.83;;
33696;SDS011;20031;43.416;23.232;2023-03-13T00:45:52;5.20;;;3.50;;
33696;SDS011;20031;43.416;23.232;2023-03-13T00:48:17;6.07;;;3.88;;
33696;SDS011;20031;43.416;23.232;2023-03-13T00:50:42;8.30;;;4.15;;
33696;SDS011;20031;43.416;23.232;2023-03-13T00:53:08;7.00;;;3.85;;
33696;SDS011;20031;43.416;23.232;2023-03-13T00:55:33;5.85;;;3.70;;
33696;SDS011;20031;43.416;23.232;2023-03-13T00:57:59;4.72;;;3.13;;
33696;SDS011;20031;43.416;23.232;2023-03-13T01:00:24;6.70;;;3.78;;
33696;SDS011;20031;43.416;23.232;2023-03-13T01:02:49;4.50;;;3.40;;
33696;SDS011;20031;43.416;23.232;2023-03-13T01:05:15;5.75;;;3.38;;
33696;SDS011;20031;43.416;23.232;2023-03-13T01:07:40;7.85;;;3.50;;
33696;SDS011;20031;43.416;23.232;2023-03-13T01:10:06;6.88;;;3.80;;
33696;SDS011;20031;43.416;23.232;2023-03-13T01:12:31;6.10;;;3.42;;
33696;SDS011;20031;43.416;23.232;2023-03-13T01:14:57;6.68;;;3.40;;
33696;SDS011;20031;43.416;23.232;2023-03-13T01:17:22;6.47;;;3.75;;
33696;SDS011;20031;43.416;23.232;2023-03-13T01:19:48;6.40;;;3.38;;
33696;SDS011;20031;43.416;23.232;2023-03-13T01:22:14;5.28;;;3.35;;
33696;SDS011;20031;43.416;23.232;2023-03-13T01:24:39;6.35;;;3.40;;
33696;SDS011;20031;43.416;23.232;2023-03-13T01:27:04;7.13;;;4.28;;
33696;SDS011;20031;43.416;23.232;2023-03-13T01:29:30;8.65;;;3.80;;
33696;SDS011;20031;43.416;23.232;2023-03-13T01:31:55;6.95;;;3.60;;
33696;SDS011;20031;43.416;23.232;2023-03-13T01:34:21;7.38;;;3.53;;
33696;SDS011;20031;43.416;23.232;2023-03-13T01:36:46;6.60;;;3.40;;
33696;SDS011;20031;43.416;23.232;2023-03-13T01:39:14;5.63;;;3.30;;
33696;SDS011;20031;43.416;23.232;2023-03-13T01:41:40;4.57;;;2.85;;
33696;SDS011;20031;43.416;23.232;2023-03-13T01:44:11;4.45;;;3.17;;
33696;SDS011;20031;43.416;23.232;2023-03-13T01:46:46;6.88;;;3.30;;
33696;SDS011;20031;43.416;23.232;2023-03-13T01:49:13;5.03;;;3.40;;
33696;SDS011;20031;43.416;23.232;2023-03-13T01:51:54;5.97;;;3.20;;
33696;SDS011;20031;43.416;23.232;2023-03-13T01:56:55;4.88;;;3.20;;
33696;SDS011;20031;43.416;23.232;2023-03-13T01:59:25;4.80;;;3.28;;
33696;SDS011;20031;43.416;23.232;2023-03-13T02:01:55;7.22;;;3.50;;
33696;SDS011;20031;43.416;23.232;2023-03-13T02:04:23;5.88;;;3.08;;
33696;SDS011;20031;43.416;23.232;2023-03-13T02:06:52;4.75;;;3.30;;
33696;SDS011;20031;43.416;23.232;2023-03-13T02:09:21;5.45;;;3.15;;
33696;SDS011;20031;43.416;23.232;2023-03-13T02:11:55;5.82;;;3.40;;
33696;SDS011;20031;43.416;23.232;2023-03-13T02:14:32;5.97;;;3.33;;
33696;SDS011;20031;43.416;23.232;2023-03-13T02:17:01;6.43;;;3.45;;
33696;SDS011;20031;43.416;23.232;2023-03-13T02:27:33;5.10;;;3.38;;
33696;SDS011;20031;43.416;23.232;2023-03-13T02:30:00;4.93;;;3.30;;
33696;SDS011;20031;43.416;23.232;2023-03-13T02:32:26;5.40;;;3.40;;
33696;SDS011;20031;43.416;23.232;2023-03-13T02:34:56;5.95;;;3.50;;
33696;SDS011;20031;43.416;23.232;2023-03-13T02:37:25;8.02;;;3.38;;
33696;SDS011;20031;43.416;23.232;2023-03-13T02:39:54;7.13;;;3.50;;
33696;SDS011;20031;43.416;23.232;2023-03-13T02:42:23;5.03;;;3.05;;
33696;SDS011;20031;43.416;23.232;2023-03-13T02:44:49;6.03;;;3.40;;
33696;SDS011;20031;43.416;23.232;2023-03-13T02:47:20;6.07;;;3.60;;
33696;SDS011;20031;43.416;23.232;2023-03-13T02:49:46;6.90;;;3.60;;
33696;SDS011;20031;43.416;23.232;2023-03-13T02:55:04;6.57;;;3.33;;
33696;SDS011;20031;43.416;23.232;2023-03-13T02:57:33;5.40;;;2.90;;
33696;SDS011;20031;43.416;23.232;2023-03-13T02:59:59;5.50;;;3.22;;
33696;SDS011;20031;43.416;23.232;2023-03-13T03:02:25;6.80;;;3.50;;
33696;SDS011;20031;43.416;23.232;2023-03-13T03:04:51;5.30;;;3.28;;
33696;SDS011;20031;43.416;23.232;2023-03-13T03:07:16;5.72;;;3.08;;
33696;SDS011;20031;43.416;23.232;2023-03-13T03:09:41;4.75;;;3.20;;
33696;SDS011;20031;43.416;23.232;2023-03-13T03:12:07;5.57;;;3.28;;
33696;SDS011;20031;43.416;23.232;2023-03-13T03:14:33;6.65;;;3.40;;
33696;SDS011;20031;43.416;23.232;2023-03-13T03:16:59;5.13;;;3.05;;
33696;SDS011;20031;43.416;23.232;2023-03-13T03:19:24;6.05;;;3.35;;
33696;SDS011;20031;43.416;23.232;2023-03-13T03:21:50;8.30;;;3.22;;
33696;SDS011;20031;43.416;23.232;2023-03-13T03:24:15;6.63;;;3.95;;
33696;SDS011;20031;43.416;23.232;2023-03-13T03:26:41;5.93;;;3.58;;
33696;SDS011;20031;43.416;23.232;2023-03-13T03:29:06;6.25;;;3.30;;
33696;SDS011;20031;43.416;23.232;2023-03-13T03:31:32;7.88;;;3.60;;
33696;SDS011;20031;43.416;23.232;2023-03-13T03:33:58;4.78;;;2.97;;
33696;SDS011;20031;43.416;23.232;2023-03-13T03:36:24;7.07;;;3.35;;
33696;SDS011;20031;43.416;23.232;2023-03-13T03:38:50;25.83;;;5.30;;
33696;SDS011;20031;43.416;23.232;2023-03-13T03:41:16;12.10;;;5.15;;
33696;SDS011;20031;43.416;23.232;2023-03-13T03:43:43;15.00;;;5.32;;
33696;SDS011;20031;43.416;23.232;2023-03-13T03:46:09;12.52;;;5.03;;
33696;SDS011;20031;43.416;23.232;2023-03-13T03:48:35;9.27;;;5.10;;
33696;SDS011;20031;43.416;23.232;2023-03-13T03:51:01;12.35;;;4.90;;
33696;SDS011;20031;43.416;23.232;2023-03-13T03:53:27;15.80;;;4.90;;
33696;SDS011;20031;43.416;23.232;2023-03-13T03:55:52;13.52;;;5.00;;
33696;SDS011;20031;43.416;23.232;2023-03-13T03:58:18;14.10;;;5.40;;
33696;SDS011;20031;43.416;23.232;2023-03-13T04:00:44;11.57;;;4.65;;
33696;SDS011;20031;43.416;23.232;2023-03-13T04:03:11;9.82;;;4.63;;
33696;SDS011;20031;43.416;23.232;2023-03-13T04:05:37;8.93;;;4.80;;
33696;SDS011;20031;43.416;23.232;2023-03-13T04:08:03;12.00;;;4.95;;
33696;SDS011;20031;43.416;23.232;2023-03-13T04:10:29;12.63;;;4.75;;
33696;SDS011;20031;43.416;23.232;2023-03-13T04:12:54;10.52;;;4.88;;
33696;SDS011;20031;43.416;23.232;2023-03-13T04:15:20;9.25;;;4.78;;
33696;SDS011;20031;43.416;23.232;2023-03-13T04:17:45;10.75;;;4.90;;
33696;SDS011;20031;43.416;23.232;2023-03-13T04:20:11;13.00;;;4.65;;
33696;SDS011;20031;43.416;23.232;2023-03-13T04:22:38;10.85;;;4.80;;
33696;SDS011;20031;43.416;23.232;2023-03-13T04:25:04;8.70;;;4.97;;
33696;SDS011;20031;43.416;23.232;2023-03-13T04:27:31;11.82;;;5.20;;
33696;SDS011;20031;43.416;23.232;2023-03-13T04:29:57;8.93;;;4.57;;
33696;SDS011;20031;43.416;23.232;2023-03-13T04:32:23;9.38;;;4.70;;
33696;SDS011;20031;43.416;23.232;2023-03-13T04:34:48;14.50;;;5.07;;
33696;SDS011;20031;43.416;23.232;2023-03-13T04:37:14;11.48;;;5.13;;
33696;SDS011;20031;43.416;23.232;2023-03-13T04:39:39;11.52;;;5.30;;
33696;SDS011;20031;43.416;23.232;2023-03-13T04:42:05;11.48;;;5.50;;
33696;SDS011;20031;43.416;23.232;2023-03-13T04:44:35;9.05;;;4.32;;
33696;SDS011;20031;43.416;23.232;2023-03-13T04:47:00;9.80;;;4.35;;
33696;SDS011;20031;43.416;23.232;2023-03-13T04:49:26;18.20;;;5.30;;
33696;SDS011;20031;43.416;23.232;2023-03-13T04:51:51;19.00;;;5.90;;
33696;SDS011;20031;43.416;23.232;2023-03-13T04:54:16;25.30;;;6.65;;
33696;SDS011;20031;43.416;23.232;2023-03-13T04:56:42;67.45;;;18.55;;
33696;SDS011;20031;43.416;23.232;2023-03-13T04:59:08;360.13;;;150.52;;
33696;SDS011;20031;43.416;23.232;2023-03-13T05:01:35;386.08;;;168.57;;
33696;SDS011;20031;43.416;23.232;2023-03-13T05:04:00;153.10;;;62.72;;
33696;SDS011;20031;43.416;23.232;2023-03-13T05:06:26;102.97;;;43.75;;
33696;SDS011;20031;43.416;23.232;2023-03-13T05:08:51;33.92;;;13.30;;
33696;SDS011;20031;43.416;23.232;2023-03-13T05:11:17;24.65;;;9.18;;
33696;SDS011;20031;43.416;23.232;2023-03-13T05:13:42;15.40;;;6.78;;
33696;SDS011;20031;43.416;23.232;2023-03-13T05:16:08;13.20;;;6.55;;
33696;SDS011;20031;43.416;23.232;2023-03-13T05:18:33;16.45;;;5.25;;
33696;SDS011;20031;43.416;23.232;2023-03-13T05:21:00;10.52;;;5.20;;
33696;SDS011;20031;43.416;23.232;2023-03-13T05:23:26;14.27;;;4.95;;
33696;SDS011;20031;43.416;23.232;2023-03-13T05:25:51;9.38;;;4.60;;
33696;SDS011;20031;43.416;23.232;2023-03-13T05:28:17;8.73;;;4.18;;
33696;SDS011;20031;43.416;23.232;2023-03-13T05:30:42;12.68;;;4.22;;
33696;SDS011;20031;43.416;23.232;2023-03-13T05:33:08;8.23;;;4.35;;
33696;SDS011;20031;43.416;23.232;2023-03-13T05:35:33;9.35;;;4.30;;
33696;SDS011;20031;43.416;23.232;2023-03-13T05:37:58;11.00;;;4.00;;
33696;SDS011;20031;43.416;23.232;2023-03-13T05:40:24;10.20;;;5.10;;
33696;SDS011;20031;43.416;23.232;2023-03-13T05:42:49;14.40;;;4.68;;
33696;SDS011;20031;43.416;23.232;2023-03-13T05:45:15;13.20;;;4.80;;
33696;SDS011;20031;43.416;23.232;2023-03-13T05:47:40;10.05;;;4.15;;
33696;SDS011;20031;43.416;23.232;2023-03-13T05:50:06;11.50;;;4.55;;
33696;SDS011;20031;43.416;23.232;2023-03-13T05:52:32;15.75;;;5.82;;
33696;SDS011;20031;43.416;23.232;2023-03-13T05:54:58;12.82;;;4.07;;
33696;SDS011;20031;43.416;23.232;2023-03-13T05:57:24;14.43;;;5.75;;
33696;SDS011;20031;43.416;23.232;2023-03-13T05:59:49;13.70;;;5.10;;
33696;SDS011;20031;43.416;23.232;2023-03-13T06:02:15;22.25;;;8.18;;
33696;SDS011;20031;43.416;23.232;2023-03-13T06:04:40;11.32;;;4.63;;
33696;SDS011;20031;43.416;23.232;2023-03-13T06:07:06;18.50;;;6.68;;
33696;SDS011;20031;43.416;23.232;2023-03-13T06:09:31;7.60;;;4.47;;
33696;SDS011;20031;43.416;23.232;2023-03-13T06:11:56;7.22;;;4.55;;
33696;SDS011;20031;43.416;23.232;2023-03-13T06:14:22;8.90;;;4.82;;
33696;SDS011;20031;43.416;23.232;2023-03-13T06:16:47;15.40;;;5.60;;
33696;SDS011;20031;43.416;23.232;2023-03-13T06:19:13;13.10;;;5.40;;
33696;SDS011;20031;43.416;23.232;2023-03-13T06:21:38;14.85;;;7.82;;
33696;SDS011;20031;43.416;23.232;2023-03-13T06:24:04;22.05;;;7.47;;
33696;SDS011;20031;43.416;23.232;2023-03-13T06:26:29;17.60;;;4.63;;
33696;SDS011;20031;43.416;23.232;2023-03-13T06:28:55;16.70;;;6.00;;
33696;SDS011;20031;43.416;23.232;2023-03-13T06:31:20;9.35;;;4.18;;
33696;SDS011;20031;43.416;23.232;2023-03-13T06:33:46;9.48;;;4.10;;
33696;SDS011;20031;43.416;23.232;2023-03-13T06:36:11;15.18;;;3.67;;
33696;SDS011;20031;43.416;23.232;2023-03-13T06:38:37;15.88;;;3.85;;
33696;SDS011;20031;43.416;23.232;2023-03-13T06:41:02;9.45;;;3.63;;
33696;SDS011;20031;43.416;23.232;2023-03-13T06:43:28;17.60;;;4.50;;
33696;SDS011;20031;43.416;23.232;2023-03-13T06:45:53;10.13;;;4.40;;
33696;SDS011;20031;43.416;23.232;2023-03-13T06:48:19;10.65;;;4.80;;
33696;SDS011;20031;43.416;23.232;2023-03-13T06:50:47;14.98;;;5.32;;
33696;SDS011;20031;43.416;23.232;2023-03-13T06:53:16;14.25;;;5.70;;
33696;SDS011;20031;43.416;23.232;2023-03-13T06:55:44;10.43;;;5.07;;
33696;SDS011;20031;43.416;23.232;2023-03-13T06:58:09;14.27;;;6.40;;
33696;SDS011;20031;43.416;23.232;2023-03-13T07:00:35;11.95;;;4.75;;
33696;SDS011;20031;43.416;23.232;2023-03-13T07:03:01;16.17;;;5.22;;
33696;SDS011;20031;43.416;23.232;2023-03-13T07:05:26;9.48;;;4.82;;
33696;SDS011;20031;43.416;23.232;2023-03-13T07:07:51;9.00;;;3.65;;
33696;SDS011;20031;43.416;23.232;2023-03-13T07:10:17;12.48;;;3.83;;
33696;SDS011;20031;43.416;23.232;2023-03-13T07:12:43;16.88;;;5.30;;
33696;SDS011;20031;43.416;23.232;2023-03-13T07:15:08;12.15;;;4.72;;
33696;SDS011;20031;43.416;23.232;2023-03-13T07:17:34;8.20;;;4.03;;
33696;SDS011;20031;43.416;23.232;2023-03-13T07:20:00;7.63;;;4.10;;
33696;SDS011;20031;43.416;23.232;2023-03-13T07:22:26;14.43;;;4.35;;
33696;SDS011;20031;43.416;23.232;2023-03-13T07:24:51;10.65;;;4.32;;
33696;SDS011;20031;43.416;23.232;2023-03-13T07:27:17;6.32;;;4.20;;
33696;SDS011;20031;43.416;23.232;2023-03-13T07:29:45;10.93;;;5.03;;
33696;SDS011;20031;43.416;23.232;2023-03-13T07:32:10;31.65;;;16.40;;
33696;SDS011;20031;43.416;23.232;2023-03-13T07:34:36;51.53;;;26.38;;
33696;SDS011;20031;43.416;23.232;2023-03-13T07:37:01;16.02;;;9.15;;
33696;SDS011;20031;43.416;23.232;2023-03-13T07:39:27;28.05;;;7.25;;
33696;SDS011;20031;43.416;23.232;2023-03-13T07:41:52;15.38;;;5.60;;
33696;SDS011;20031;43.416;23.232;2023-03-13T07:44:18;6.35;;;4.65;;
33696;SDS011;20031;43.416;23.232;2023-03-13T07:46:43;15.82;;;5.32;;
33696;SDS011;20031;43.416;23.232;2023-03-13T07:49:08;11.40;;;5.80;;
33696;SDS011;20031;43.416;23.232;2023-03-13T07:51:34;19.33;;;6.03;;
33696;SDS011;20031;43.416;23.232;2023-03-13T07:53:59;12.65;;;5.55;;
33696;SDS011;20031;43.416;23.232;2023-03-13T07:56:25;13.10;;;5.40;;
33696;SDS011;20031;43.416;23.232;2023-03-13T07:58:50;12.00;;;4.53;;
33696;SDS011;20031;43.416;23.232;2023-03-13T08:01:20;9.10;;;4.80;;
33696;SDS011;20031;43.416;23.232;2023-03-13T08:03:47;14.40;;;5.30;;
33696;SDS011;20031;43.416;23.232;2023-03-13T08:06:15;15.07;;;5.00;;
33696;SDS011;20031;43.416;23.232;2023-03-13T08:08:48;10.25;;;4.30;;
33696;SDS011;20031;43.416;23.232;2023-03-13T08:11:15;5.88;;;3.50;;
33696;SDS011;20031;43.416;23.232;2023-03-13T08:13:45;18.00;;;4.68;;
33696;SDS011;20031;43.416;23.232;2023-03-13T08:16:14;6.43;;;3.20;;
33696;SDS011;20031;43.416;23.232;2023-03-13T08:18:46;9.48;;;3.85;;
33696;SDS011;20031;43.416;23.232;2023-03-13T08:21:14;7.07;;;3.10;;
33696;SDS011;20031;43.416;23.232;2023-03-13T08:23:42;5.43;;;3.72;;
33696;SDS011;20031;43.416;23.232;2023-03-13T08:26:09;7.10;;;3.00;;
33696;SDS011;20031;43.416;23.232;2023-03-13T08:28:37;8.77;;;3.33;;
33696;SDS011;20031;43.416;23.232;2023-03-13T08:31:11;8.32;;;3.42;;
33696;SDS011;20031;43.416;23.232;2023-03-13T08:33:41;8.00;;;3.75;;
33696;SDS011;20031;43.416;23.232;2023-03-13T08:36:11;5.75;;;3.47;;
33696;SDS011;20031;43.416;23.232;2023-03-13T08:38:49;6.95;;;3.42;;
33696;SDS011;20031;43.416;23.232;2023-03-13T08:41:20;7.90;;;3.80;;
33696;SDS011;20031;43.416;23.232;2023-03-13T08:43:48;6.68;;;3.83;;
33696;SDS011;20031;43.416;23.232;2023-03-13T08:46:15;7.35;;;3.60;;
33696;SDS011;20031;43.416;23.232;2023-03-13T08:48:41;6.50;;;3.50;;
33696;SDS011;20031;43.416;23.232;2023-03-13T08:51:10;8.40;;;4.35;;
33696;SDS011;20031;43.416;23.232;2023-03-13T08:53:38;8.05;;;3.90;;
33696;SDS011;20031;43.416;23.232;2023-03-13T08:56:05;7.95;;;4.40;;
33696;SDS011;20031;43.416;23.232;2023-03-13T08:58:32;7.13;;;3.83;;
33696;SDS011;20031;43.416;23.232;2023-03-13T09:01:01;6.20;;;3.80;;
33696;SDS011;20031;43.416;23.232;2023-03-13T09:03:32;4.88;;;3.45;;
33696;SDS011;20031;43.416;23.232;2023-03-13T09:06:00;5.30;;;3.00;;
33696;SDS011;20031;43.416;23.232;2023-03-13T09:08:26;5.93;;;3.53;;
33696;SDS011;20031;43.416;23.232;2023-03-13T09:11:26;7.45;;;3.60;;
33696;SDS011;20031;43.416;23.232;2023-03-13T09:13:46;8.75;;;4.00;;
33696;SDS011;20031;43.416;23.232;2023-03-13T09:18:44;42.10;;;5.55;;
33696;SDS011;20031;43.416;23.232;2023-03-13T09:21:12;10.63;;;4.15;;
33696;SDS011;20031;43.416;23.232;2023-03-13T09:23:42;20.10;;;6.32;;
33696;SDS011;20031;43.416;23.232;2023-03-13T09:26:07;7.43;;;3.90;;
33696;SDS011;20031;43.416;23.232;2023-03-13T09:28:33;4.88;;;3.50;;
33696;SDS011;20031;43.416;23.232;2023-03-13T09:31:10;6.65;;;3.65;;
33696;SDS011;20031;43.416;23.232;2023-03-13T09:33:38;22.52;;;4.05;;
33696;SDS011;20031;43.416;23.232;2023-03-13T09:36:04;8.80;;;4.40;;
33696;SDS011;20031;43.416;23.232;2023-03-13T09:38:31;6.05;;;3.72;;
33696;SDS011;20031;43.416;23.232;2023-03-13T09:41:00;7.22;;;4.15;;
33696;SDS011;20031;43.416;23.232;2023-03-13T09:43:39;7.93;;;3.80;;
33696;SDS011;20031;43.416;23.232;2023-03-13T09:48:48;5.70;;;3.45;;
33696;SDS011;20031;43.416;23.232;2023-03-13T09:51:24;7.18;;;4.10;;
33696;SDS011;20031;43.416;23.232;2023-03-13T09:53:58;7.90;;;4.10;;
33696;SDS011;20031;43.416;23.232;2023-03-13T09:56:33;7.05;;;4.22;;
33696;SDS011;20031;43.416;23.232;2023-03-13T09:59:33;6.88;;;4.10;;
33696;SDS011;20031;43.416;23.232;2023-03-13T10:07:49;9.80;;;4.15;;
33696;SDS011;20031;43.416;23.232;2023-03-13T10:10:16;6.53;;;3.95;;
33696;SDS011;20031;43.416;23.232;2023-03-13T10:12:47;15.70;;;4.60;;
33696;SDS011;20031;43.416;23.232;2023-03-13T10:18:18;6.43;;;3.60;;
33696;SDS011;20031;43.416;23.232;2023-03-13T10:20:48;11.40;;;4.68;;
33696;SDS011;20031;43.416;23.232;2023-03-13T10:23:24;11.10;;;3.95;;
33696;SDS011;20031;43.416;23.232;2023-03-13T10:25:59;10.10;;;3.90;;
33696;SDS011;20031;43.416;23.232;2023-03-13T10:28:25;6.45;;;3.72;;
33696;SDS011;20031;43.416;23.232;2023-03-13T10:31:13;4.97;;;3.28;;
33696;SDS011;20031;43.416;23.232;2023-03-13T10:33:41;5.85;;;2.95;;
33696;SDS011;20031;43.416;23.232;2023-03-13T10:36:08;4.25;;;2.92;;
33696;SDS011;20031;43.416;23.232;2023-03-13T10:38:51;8.35;;;3.60;;
33696;SDS011;20031;43.416;23.232;2023-03-13T10:41:28;15.40;;;3.40;;
33696;SDS011;20031;43.416;23.232;2023-03-13T10:44:05;5.90;;;3.20;;
33696;SDS011;20031;43.416;23.232;2023-03-13T10:46:39;5.68;;;2.70;;
33696;SDS011;20031;43.416;23.232;2023-03-13T10:49:12;5.38;;;3.25;;
33696;SDS011;20031;43.416;23.232;2023-03-13T10:51:52;5.40;;;2.95;;
33696;SDS011;20031;43.416;23.232;2023-03-13T10:54:24;4.00;;;2.78;;
33696;SDS011;20031;43.416;23.232;2023-03-13T10:59:43;7.05;;;3.30;;
33696;SDS011;20031;43.416;23.232;2023-03-13T11:05:02;7.00;;;2.72;;
33696;SDS011;20031;43.416;23.232;2023-03-13T11:10:34;4.93;;;2.92;;
33696;SDS011;20031;43.416;23.232;2023-03-13T11:13:01;6.82;;;3.13;;
33696;SDS011;20031;43.416;23.232;2023-03-13T11:15:31;3.92;;;2.88;;
33696;SDS011;20031;43.416;23.232;2023-03-13T11:18:15;6.60;;;3.05;;
33696;SDS011;20031;43.416;23.232;2023-03-13T11:20:43;5.55;;;3.15;;
33696;SDS011;20031;43.416;23.232;2023-03-13T11:23:17;6.85;;;2.88;;
33696;SDS011;20031;43.416;23.232;2023-03-13T11:28:34;7.38;;;2.92;;
33696;SDS011;20031;43.416;23.232;2023-03-13T11:31:20;4.88;;;2.67;;
33696;SDS011;20031;43.416;23.232;2023-03-13T11:34:01;7.85;;;3.28;;
33696;SDS011;20031;43.416;23.232;2023-03-13T11:41:43;5.38;;;2.45;;
33696;SDS011;20031;43.416;23.232;2023-03-13T11:44:18;4.55;;;2.50;;
33696;SDS011;20031;43.416;23.232;2023-03-13T11:47:02;8.70;;;2.88;;
33696;SDS011;20031;43.416;23.232;2023-03-13T11:49:47;10.27;;;3.80;;
33696;SDS011;20031;43.416;23.232;2023-03-13T11:56:15;10.45;;;2.58;;
33696;SDS011;20031;43.416;23.232;2023-03-13T12:01:19;5.72;;;2.72;;
33696;SDS011;20031;43.416;23.232;2023-03-13T12:04:14;5.95;;;3.58;;
33696;SDS011;20031;43.416;23.232;2023-03-13T12:10:01;6.85;;;3.05;;
33696;SDS011;20031;43.416;23.232;2023-03-13T12:23:16;4.07;;;2.67;;
33696;SDS011;20031;43.416;23.232;2023-03-13T12:25:53;5.95;;;2.90;;
33696;SDS011;20031;43.416;23.232;2023-03-13T12:28:36;5.13;;;2.83;;
33696;SDS011;20031;43.416;23.232;2023-03-13T12:31:34;5.30;;;2.58;;
33696;SDS011;20031;43.416;23.232;2023-03-13T12:39:48;4.78;;;2.50;;
33696;SDS011;20031;43.416;23.232;2023-03-13T12:42:38;3.47;;;2.50;;
33696;SDS011;20031;43.416;23.232;2023-03-13T12:45:18;5.63;;;2.13;;
33696;SDS011;20031;43.416;23.232;2023-03-13T12:59:07;4.15;;;2.30;;
33696;SDS011;20031;43.416;23.232;2023-03-13T13:01:35;5.70;;;2.25;;
33696;SDS011;20031;43.416;23.232;2023-03-13T13:12:37;4.10;;;2.00;;
33696;SDS011;20031;43.416;23.232;2023-03-13T13:15:25;6.15;;;2.17;;
33696;SDS011;20031;43.416;23.232;2023-03-13T13:25:51;10.43;;;2.72;;
33696;SDS011;20031;43.416;23.232;2023-03-13T13:30:47;3.83;;;2.05;;
33696;SDS011;20031;43.416;23.232;2023-03-13T13:38:32;5.40;;;1.80;;
33696;SDS011;20031;43.416;23.232;2023-03-13T13:43:36;4.97;;;2.20;;
33696;SDS011;20031;43.416;23.232;2023-03-13T13:48:36;3.45;;;1.98;;
33696;SDS011;20031;43.416;23.232;2023-03-13T13:56:41;29.40;;;5.63;;
33696;SDS011;20031;43.416;23.232;2023-03-13T14:04:40;4.70;;;2.00;;
33696;SDS011;20031;43.416;23.232;2023-03-13T14:07:18;3.30;;;1.98;;
33696;SDS011;20031;43.416;23.232;2023-03-13T14:12:44;6.55;;;2.30;;
33696;SDS011;20031;43.416;23.232;2023-03-13T14:15:21;14.35;;;3.00;;
33696;SDS011;20031;43.416;23.232;2023-03-13T14:17:56;3.42;;;2.38;;
33696;SDS011;20031;43.416;23.232;2023-03-13T14:20:28;11.25;;;2.47;;
33696;SDS011;20031;43.416;23.232;2023-03-13T14:22:59;25.05;;;2.90;;
33696;SDS011;20031;43.416;23.232;2023-03-13T14:25:47;3.63;;;2.35;;
33696;SDS011;20031;43.416;23.232;2023-03-13T14:30:50;22.88;;;4.07;;
33696;SDS011;20031;43.416;23.232;2023-03-13T14:33:18;14.35;;;3.92;;
33696;SDS011;20031;43.416;23.232;2023-03-13T14:35:44;9.80;;;2.63;;
33696;SDS011;20031;43.416;23.232;2023-03-13T14:40:43;15.40;;;3.67;;
33696;SDS011;20031;43.416;23.232;2023-03-13T14:46:12;6.07;;;2.05;;
33696;SDS011;20031;43.416;23.232;2023-03-13T14:48:44;9.85;;;2.97;;
33696;SDS011;20031;43.416;23.232;2023-03-13T14:51:15;3.55;;;2.10;;
33696;SDS011;20031;43.416;23.232;2023-03-13T14:54:01;8.43;;;2.50;;
33696;SDS011;20031;43.416;23.232;2023-03-13T14:56:31;14.30;;;2.85;;
33696;SDS011;20031;43.416;23.232;2023-03-13T14:59:05;10.10;;;3.10;;
33696;SDS011;20031;43.416;23.232;2023-03-13T15:01:56;5.10;;;2.40;;
33696;SDS011;20031;43.416;23.232;2023-03-13T15:04:56;22.65;;;3.70;;
33696;SDS011;20031;43.416;23.232;2023-03-13T15:07:24;20.40;;;3.45;;
33696;SDS011;20031;43.416;23.232;2023-03-13T15:10:20;14.02;;;3.63;;
33696;SDS011;20031;43.416;23.232;2023-03-13T15:12:48;20.25;;;5.05;;
33696;SDS011;20031;43.416;23.232;2023-03-13T15:15:14;7.90;;;2.83;;
33696;SDS011;20031;43.416;23.232;2023-03-13T15:17:39;9.63;;;2.90;;
33696;SDS011;20031;43.416;23.232;2023-03-13T15:20:05;25.55;;;5.18;;
33696;SDS011;20031;43.416;23.232;2023-03-13T15:22:32;19.23;;;4.00;;
33696;SDS011;20031;43.416;23.232;2023-03-13T15:25:00;20.38;;;3.97;;
33696;SDS011;20031;43.416;23.232;2023-03-13T15:27:26;38.85;;;6.93;;
33696;SDS011;20031;43.416;23.232;2023-03-13T15:29:52;15.93;;;3.67;;
33696;SDS011;20031;43.416;23.232;2023-03-13T15:32:23;12.32;;;3.50;;
33696;SDS011;20031;43.416;23.232;2023-03-13T15:34:53;13.15;;;3.17;;
33696;SDS011;20031;43.416;23.232;2023-03-13T15:37:24;13.10;;;3.35;;
33696;SDS011;20031;43.416;23.232;2023-03-13T15:39:50;18.55;;;3.35;;
33696;SDS011;20031;43.416;23.232;2023-03-13T15:42:16;13.52;;;3.33;;
33696;SDS011;20031;43.416;23.232;2023-03-13T15:44:42;12.02;;;3.15;;
33696;SDS011;20031;43.416;23.232;2023-03-13T15:47:10;8.13;;;3.10;;
33696;SDS011;20031;43.416;23.232;2023-03-13T15:49:38;12.30;;;3.00;;
33696;SDS011;20031;43.416;23.232;2023-03-13T15:52:07;26.48;;;5.47;;
33696;SDS011;20031;43.416;23.232;2023-03-13T15:54:43;36.33;;;8.18;;
33696;SDS011;20031;43.416;23.232;2023-03-13T15:57:11;29.20;;;5.10;;
33696;SDS011;20031;43.416;23.232;2023-03-13T15:59:40;37.60;;;5.65;;
33696;SDS011;20031;43.416;23.232;2023-03-13T16:02:13;27.77;;;6.10;;
33696;SDS011;20031;43.416;23.232;2023-03-13T16:04:41;16.70;;;3.85;;
33696;SDS011;20031;43.416;23.232;2023-03-13T16:07:08;12.95;;;3.50;;
33696;SDS011;20031;43.416;23.232;2023-03-13T16:09:38;22.73;;;3.00;;
33696;SDS011;20031;43.416;23.232;2023-03-13T16:12:05;6.75;;;2.63;;
33696;SDS011;20031;43.416;23.232;2023-03-13T16:14:31;18.70;;;3.97;;
33696;SDS011;20031;43.416;23.232;2023-03-13T16:16:57;8.85;;;3.25;;
33696;SDS011;20031;43.416;23.232;2023-03-13T16:19:22;13.95;;;3.08;;
33696;SDS011;20031;43.416;23.232;2023-03-13T16:21:48;19.70;;;3.80;;
33696;SDS011;20031;43.416;23.232;2023-03-13T16:24:14;22.92;;;5.20;;
33696;SDS011;20031;43.416;23.232;2023-03-13T16:26:41;29.20;;;5.55;;
33696;SDS011;20031;43.416;23.232;2023-03-13T16:29:09;38.05;;;6.05;;
33696;SDS011;20031;43.416;23.232;2023-03-13T16:31:36;46.78;;;7.18;;
33696;SDS011;20031;43.416;23.232;2023-03-13T16:34:01;42.72;;;5.97;;
33696;SDS011;20031;43.416;23.232;2023-03-13T16:36:28;18.63;;;3.60;;
33696;SDS011;20031;43.416;23.232;2023-03-13T16:38:59;37.58;;;5.82;;
33696;SDS011;20031;43.416;23.232;2023-03-13T16:41:26;43.17;;;8.02;;
33696;SDS011;20031;43.416;23.232;2023-03-13T16:43:53;71.38;;;9.85;;
33696;SDS011;20031;43.416;23.232;2023-03-13T16:46:23;26.60;;;5.68;;
33696;SDS011;20031;43.416;23.232;2023-03-13T16:48:52;32.10;;;5.18;;
33696;SDS011;20031;43.416;23.232;2023-03-13T16:51:20;25.45;;;5.15;;